Time;durP1;ratioP1;P1;durP2;ratioP2;P2;SDS_P1;SDS_P2;PMS_P1;PMS_P2;Temp;Humidity;BMP_temperature;BMP_pressure;BME280_temperature;BME280_humidity;BME280_pressure;Samples;Min_cycle;Max_cycle;Signal;HPM_P1;HPM_P2
2021/01/30 00:00:35;;;;;;;;;;;;;;;-1.62;86.98;94572.07;1756292;81;21107;-84
2021/01/30 00:03:09;;;;;;;59.40;35.50;;;;;;;-1.57;86.98;94565.59;1750968;80;20188;-86
2021/01/30 00:05:37;;;;;;;59.55;36.48;;;;;;;-1.57;86.85;94566.89;1759192;81;21132;-86
2021/01/30 00:08:07;;;;;;;63.95;38.02;;;;;;;-1.54;86.79;94565.11;1758398;81;21112;-86
2021/01/30 00:10:34;;;;;;;73.00;39.03;;;;;;;-1.50;86.76;94567.46;1763354;80;21461;-87
2021/01/30 00:13:03;;;;;;;63.63;39.30;;;;;;;-1.47;86.68;94567.47;1754862;81;21117;-87
2021/01/30 00:15:31;;;;;;;61.88;35.50;;;;;;;-1.43;86.64;94570.59;1763685;81;21116;-86
2021/01/30 00:17:58;;;;;;;63.15;37.13;;;;;;;-1.39;86.59;94574.80;1734054;81;21278;-86
2021/01/30 00:20:31;;;;;;;61.58;39.67;;;;;;;-1.38;86.52;94580.25;1758573;81;21101;-87
2021/01/30 00:23:00;;;;;;;59.58;37.95;;;;;;;-1.36;86.48;94582.86;1761218;80;21597;-86
2021/01/30 00:25:31;;;;;;;63.95;37.05;;;;;;;-1.34;86.41;94587.80;1762542;81;21258;-86
2021/01/30 00:27:58;;;;;;;61.68;35.50;;;;;;;-1.33;86.41;94579.75;1754086;81;21285;-86
2021/01/30 00:30:29;;;;;;;57.95;36.35;;;;;;;-1.31;86.34;94580.27;1750957;81;21185;-86
2021/01/30 00:32:58;;;;;;;66.90;38.70;;;;;;;-1.33;86.28;94589.37;1763604;81;21122;-86
2021/01/30 00:35:29;;;;;;;105.50;55.03;;;;;;;-1.33;86.28;94590.66;1758182;81;21538;-86
2021/01/30 00:37:57;;;;;;;91.67;46.40;;;;;;;-1.31;86.28;94588.59;1760770;81;21124;-86
2021/01/30 00:40:25;;;;;;;71.12;40.40;;;;;;;-1.30;86.25;94590.94;1740886;81;21123;-86
2021/01/30 00:42:53;;;;;;;94.60;46.50;;;;;;;-1.33;86.22;94593.27;1749008;80;21479;-86
2021/01/30 00:45:25;;;;;;;158.80;74.37;;;;;;;-1.32;86.25;94590.92;1761161;81;21516;-86
2021/01/30 00:47:53;;;;;;;127.47;64.20;;;;;;;-1.30;86.24;94594.05;1762399;81;21148;-86
2021/01/30 00:50:21;;;;;;;125.60;61.65;;;;;;;-1.27;86.27;94592.23;1755364;81;21128;-86
2021/01/30 00:52:48;;;;;;;106.50;53.70;;;;;;;-1.30;86.23;94590.16;1755033;81;21622;-86
2021/01/30 00:55:22;;;;;;;83.58;47.25;;;;;;;-1.29;86.25;94594.31;1756700;81;21120;-86
2021/01/30 00:57:50;;;;;;;195.80;86.32;;;;;;;-1.26;86.28;94597.21;1749665;81;21508;-86
2021/01/30 01:00:22;;;;;;;101.18;57.08;;;;;;;-1.25;86.24;94593.58;1751758;81;21123;-86
2021/01/30 01:02:51;;;;;;;77.10;43.75;;;;;;;-1.30;86.13;94594.05;1759402;81;21594;-86
2021/01/30 01:05:19;;;;;;;75.08;43.20;;;;;;;-1.34;86.15;94600.80;1753433;80;21249;-86
2021/01/30 01:07:47;;;;;;;73.52;42.20;;;;;;;-1.31;86.20;94600.29;1756476;81;21136;-85
2021/01/30 01:10:18;;;;;;;71.95;41.42;;;;;;;-1.30;86.17;94594.83;1760027;80;21155;-85
2021/01/30 01:12:45;;;;;;;67.17;40.98;;;;;;;-1.27;86.12;94594.34;1758688;81;21156;-85
2021/01/30 01:15:14;;;;;;;62.08;37.40;;;;;;;-1.24;86.17;94593.84;1756593;81;21153;-85
2021/01/30 01:17:41;;;;;;;72.70;40.38;;;;;;;-1.23;86.08;94591.50;1761682;80;21143;-86
2021/01/30 01:20:16;;;;;;;65.30;40.00;;;;;;;-1.23;86.06;94585.00;1761552;81;21112;-85
2021/01/30 01:22:43;;;;;;;74.32;44.03;;;;;;;-1.17;86.05;94586.31;1762383;80;21104;-86
2021/01/30 01:25:11;;;;;;;81.55;50.75;;;;;;;-1.14;86.03;94590.48;1760944;81;21136;-85
2021/01/30 01:27:39;;;;;;;80.47;46.60;;;;;;;-1.14;85.93;94594.90;1756368;81;21255;-85
2021/01/30 01:30:10;;;;;;;80.20;47.08;;;;;;;-1.16;85.83;94589.17;1756242;81;21116;-85
2021/01/30 01:32:37;;;;;;;94.00;51.33;;;;;;;-1.20;85.72;94589.69;1762321;80;21483;-86
2021/01/30 01:35:06;;;;;;;71.10;42.03;;;;;;;-1.20;85.72;94586.30;1733631;80;21487;-85
2021/01/30 01:37:34;;;;;;;50.67;27.93;;;;;;;-1.21;85.75;94589.94;1763545;81;21183;-85
2021/01/30 01:40:01;;;;;;;67.45;37.80;;;;;;;-1.27;85.73;94596.95;1759797;81;21124;-86
2021/01/30 01:42:28;;;;;;;58.08;37.83;;;;;;;-1.30;85.78;94600.03;1763163;80;21155;-85
2021/01/30 01:44:55;;;;;;;61.23;37.35;;;;;;;-1.30;85.81;94596.66;1756573;80;21513;-85
2021/01/30 01:47:37;;;;;;;54.10;33.15;;;;;;;-1.27;85.88;94595.66;1757174;81;21089;-85
2021/01/30 01:50:11;;;;;;;64.50;36.68;;;;;;;-1.35;85.97;94585.72;1752409;81;21148;-85
2021/01/30 01:52:41;;;;;;;58.30;35.10;;;;;;;-1.52;86.10;94590.32;1758617;80;21517;-85
2021/01/30 01:55:20;;;;;;;63.17;37.98;;;;;;;-1.56;86.29;94594.44;1728673;81;21440;-85
2021/01/30 01:57:53;;;;;;;55.30;32.08;;;;;;;-1.54;86.42;94600.97;1747389;81;21109;-86
2021/01/30 02:00:23;;;;;;;59.55;37.63;;;;;;;-1.54;86.45;94597.59;1759900;81;21104;-85
2021/01/30 02:02:53;;;;;;;67.32;42.25;;;;;;;-1.67;86.42;94595.43;1761423;81;21132;-86
2021/01/30 02:05:32;;;;;;;;;;;;;;;-1.65;86.48;94598.55;1762966;81;21101;-86
2021/01/30 02:08:04;;;;;;;62.13;35.10;;;;;;;-1.62;86.50;94593.63;1761811;81;20157;-86
2021/01/30 02:10:36;;;;;;;60.17;36.45;;;;;;;-1.57;86.50;94595.47;1757893;81;21173;-86
2021/01/30 02:13:08;;;;;;;61.20;35.38;;;;;;;-1.55;86.47;94584.30;1762791;81;21153;-86
2021/01/30 02:15:35;;;;;;;62.67;37.20;;;;;;;-1.50;86.46;94583.05;1754132;81;21127;-86
2021/01/30 02:18:20;;;;;;;64.62;37.42;;;;;;;-1.50;86.37;94577.86;1740808;80;21124;-86
2021/01/30 02:21:43;;;;;;;51.83;30.35;;;;;;;-1.46;86.32;94584.10;1752878;81;21140;-86
2021/01/30 02:24:53;;;;;;;55.85;32.53;;;;;;;-1.47;86.22;94583.84;1747526;81;21138;-84
2021/01/30 02:27:52;;;;;;;58.87;34.58;;;;;;;-1.63;86.17;94580.90;1756805;80;21528;-86
2021/01/30 02:30:50;;;;;;;61.73;36.10;;;;;;;-1.79;86.27;94570.94;1743714;81;21117;-85
2021/01/30 02:33:57;;;;;;;61.48;36.30;;;;;;;-1.88;86.31;94568.02;1740834;81;21468;-86
2021/01/30 02:36:50;;;;;;;61.90;34.95;;;;;;;-1.85;86.40;94575.81;1749403;81;21105;-86
2021/01/30 02:39:35;;;;;;;68.70;38.75;;;;;;;-1.81;86.42;94571.70;1762003;80;21148;-84
2021/01/30 02:42:16;;;;;;;66.45;37.30;;;;;;;-1.78;86.41;94565.23;1745513;81;21571;-85
2021/01/30 02:44:57;;;;;;;59.35;37.75;;;;;;;-1.72;86.46;94570.19;1755155;81;21134;-85
2021/01/30 02:47:29;;;;;;;65.57;37.53;;;;;;;-1.67;86.34;94566.86;1755280;81;21207;-86
2021/01/30 02:50:01;;;;;;;62.40;38.38;;;;;;;-1.65;86.31;94562.97;1752635;81;21112;-86
2021/01/30 02:52:29;;;;;;;58.70;35.92;;;;;;;-1.64;86.20;94555.95;1756437;80;21156;-86
2021/01/30 02:54:58;;;;;;;61.45;37.48;;;;;;;-1.66;86.13;94551.02;1756242;80;21124;-86
2021/01/30 02:57:27;;;;;;;68.12;38.02;;;;;;;-1.65;86.07;94556.99;1734513;80;21102;-86
2021/01/30 02:59:57;;;;;;;65.42;38.95;;;;;;;-1.62;86.05;94556.48;1728421;82;21168;-86
2021/01/30 03:02:27;;;;;;;63.70;38.78;;;;;;;-1.57;86.10;94552.08;1749668;81;21104;-86
2021/01/30 03:04:57;;;;;;;59.67;37.67;;;;;;;-1.54;86.08;94548.22;1741262;80;21163;-87
2021/01/30 03:08:08;;;;;;;62.60;37.63;;;;;;;-1.51;86.05;94545.89;1748252;81;21512;-86
2021/01/30 03:10:59;;;;;;;62.05;34.90;;;;;;;-1.47;86.01;94544.08;1754730;81;21492;-86
2021/01/30 03:14:05;;;;;;;61.08;36.90;;;;;;;-1.41;85.85;94541.23;1757108;79;23015;-86
2021/01/30 03:16:39;;;;;;;63.80;38.05;;;;;;;-1.46;85.77;94542.52;1727863;82;21153;-86
2021/01/30 03:19:21;;;;;;;63.68;37.67;;;;;;;-1.43;85.75;94531.62;1722915;81;21157;-86
2021/01/30 03:21:52;;;;;;;57.83;34.65;;;;;;;-1.39;85.77;94535.30;1715282;83;21490;-87
2021/01/30 03:24:19;;;;;;;56.58;35.40;;;;;;;-1.36;85.72;94532.18;1700698;83;21137;-86
2021/01/30 03:26:47;;;;;;;63.15;35.73;;;;;;;-1.35;85.63;94527.25;1700154;83;21189;-86
2021/01/30 03:29:18;;;;;;;56.35;34.35;;;;;;;-1.36;85.57;94526.98;1704238;83;21559;-86
2021/01/30 03:31:47;;;;;;;56.58;33.48;;;;;;;-1.40;85.53;94516.06;1721196;83;21159;-86
2021/01/30 03:34:16;;;;;;;70.20;38.50;;;;;;;-1.51;85.53;94510.81;1724644;83;21115;-86
2021/01/30 03:36:43;;;;;;;60.85;36.98;;;;;;;-1.51;85.53;94510.81;1700764;83;21148;-86
2021/01/30 03:39:17;;;;;;;59.55;36.28;;;;;;;-1.48;85.65;94508.73;1700129;83;21145;-86
2021/01/30 03:41:45;;;;;;;34.33;21.35;;;;;;;-1.46;85.75;94505.36;1718233;83;21500;-86
2021/01/30 03:44:14;;;;;;;58.52;35.10;;;;;;;-1.39;86.33;94503.33;1700624;81;21135;-86
2021/01/30 03:46:43;;;;;;;69.40;39.97;;;;;;;-1.32;86.26;94505.16;1717563;83;21134;-86
2021/01/30 03:49:10;;;;;;;62.67;36.85;;;;;;;-1.35;86.09;94509.05;1699548;83;21150;-86
2021/01/30 03:51:37;;;;;;;63.68;35.35;;;;;;;-1.41;85.92;94508.75;1718811;83;21083;-86
2021/01/30 03:54:05;;;;;;;52.80;32.58;;;;;;;-1.44;85.86;94505.37;1726879;83;21135;-86
2021/01/30 03:56:32;;;;;;;57.67;32.70;;;;;;;-1.43;85.95;94500.95;1726614;83;21152;-86
2021/01/30 03:58:58;;;;;;;43.65;25.60;;;;;;;-1.42;86.03;94498.62;1714663;83;21504;-86
2021/01/30 04:01:34;;;;;;;39.00;22.10;;;;;;;-1.45;86.20;94499.91;1720427;83;21517;-86
2021/01/30 04:04:00;;;;;;;42.23;24.40;;;;;;;-1.38;86.83;94497.87;1710305;83;21135;-86
2021/01/30 04:06:28;;;;;;;37.45;22.20;;;;;;;-1.28;86.95;94488.01;1714620;82;21186;-86
2021/01/30 04:08:55;;;;;;;24.92;14.53;;;;;;;-1.17;87.24;94488.83;1710435;83;21138;-86
2021/01/30 04:11:28;;;;;;;16.00;7.42;;;;;;;-1.04;87.88;94482.61;1712140;82;21091;-86
2021/01/30 04:13:57;;;;;;;19.10;11.18;;;;;;;-0.81;88.89;94483.18;1714272;82;21412;-86
2021/01/30 04:16:25;;;;;;;15.15;9.25;;;;;;;-0.70;88.81;94475.13;1725227;81;21491;-87
2021/01/30 04:18:52;;;;;;;14.38;7.40;;;;;;;-0.55;89.36;94467.84;1705982;83;21570;-86
2021/01/30 04:21:20;;;;;;;15.18;9.60;;;;;;;-0.47;89.36;94477.72;1744433;81;21151;-87
2021/01/30 04:23:49;;;;;;;13.90;7.50;;;;;;;-0.41;89.00;94475.38;1699398;83;21158;-87
2021/01/30 04:26:19;;;;;;;17.73;10.78;;;;;;;-0.39;88.99;94464.70;1694922;83;21104;-87
2021/01/30 04:28:49;;;;;;;17.20;9.78;;;;;;;-0.33;88.88;94468.86;1675857;84;21223;-87
2021/01/30 04:31:16;;;;;;;8.10;5.35;;;;;;;-0.37;88.79;94473.03;1706010;83;21153;-87
2021/01/30 04:33:47;;;;;;;15.00;7.25;;;;;;;-0.38;89.18;94472.25;1711403;81;21469;-87
2021/01/30 04:36:16;;;;;;;12.85;6.58;;;;;;;-0.31;88.92;94470.16;1689476;83;21511;-87
2021/01/30 04:38:44;;;;;;;15.68;7.53;;;;;;;-0.26;89.31;94477.20;1718693;81;21507;-87
2021/01/30 04:41:40;;;;;;;8.93;5.85;;;;;;;-0.22;89.23;94473.54;1718320;81;21160;-87
2021/01/30 04:44:34;;;;;;;6.60;3.83;;;;;;;-0.08;89.74;94468.83;1726981;81;21096;-88
2021/01/30 04:47:39;;;;;;;9.30;5.15;;;;;;;0.11;90.22;94462.52;1642990;86;21176;-88
2021/01/30 04:50:14;;;;;;;8.75;4.90;;;;;;;0.21;89.81;94464.33;1654677;86;21206;-87
2021/01/30 04:52:52;;;;;;;7.75;4.25;;;;;;;0.27;89.80;94455.44;1655750;84;21553;-87
2021/01/30 04:55:39;;;;;;;9.35;5.90;;;;;;;0.32;90.05;94452.83;1665236;85;21105;-87
2021/01/30 04:58:48;;;;;;;10.10;5.60;;;;;;;0.38;89.86;94449.67;1652679;86;21171;-88
2021/01/30 05:01:35;;;;;;;10.78;6.60;;;;;;;0.47;89.95;94441.56;1661395;84;21179;-88
2021/01/30 05:04:24;;;;;;;7.37;3.87;;;;;;;0.47;89.95;94441.56;1719083;83;21126;-87
2021/01/30 05:07:15;;;;;;;14.55;10.98;;;;;;;0.52;89.86;94447.52;1630355;86;21149;-87
2021/01/30 05:09:53;;;;;;;6.67;3.65;;;;;;;0.52;89.86;94447.52;1668462;84;21274;-88
2021/01/30 05:12:53;;;;;;;7.78;3.37;;;;;;;0.58;89.86;94439.95;1671324;84;21176;-88
2021/01/30 05:15:41;;;;;;;4.75;2.90;;;;;;;0.58;89.86;94439.95;1671823;84;21517;-87
2021/01/30 05:18:18;;;;;;;5.65;2.98;;;;;;;0.63;89.79;94440.44;1655509;84;21181;-88
2021/01/30 05:21:09;;;;;;;7.45;3.55;;;;;;;0.65;89.84;94441.47;1659616;85;21335;-88
2021/01/30 05:23:36;;;;;;;;;;;;;;;0.67;89.97;94431.55;1655164;85;21683;-88
2021/01/30 05:26:47;;;;;;;3.15;2.30;;;;;;;0.71;89.81;94439.11;1659819;84;20132;-89
2021/01/30 05:29:34;;;;;;;4.03;3.00;;;;;;;0.74;89.98;94421.61;1667276;84;21647;-88
2021/01/30 05:32:16;;;;;;;8.83;3.77;;;;;;;0.84;89.68;94425.45;1652292;85;21164;-88
2021/01/30 05:35:00;;;;;;;5.17;2.90;;;;;;;0.84;89.68;94425.45;1655089;85;21145;-88
2021/01/30 05:37:44;;;;;;;3.87;2.15;;;;;;;0.84;89.56;94421.53;1665161;85;21171;-88
2021/01/30 05:40:22;;;;;;;5.70;3.40;;;;;;;0.84;89.80;94422.31;1663610;85;21671;-88
2021/01/30 05:43:17;;;;;;;7.65;4.30;;;;;;;0.86;89.61;94422.06;1654903;84;21275;-88
2021/01/30 05:45:51;;;;;;;4.33;3.25;;;;;;;0.88;89.58;94418.66;1678059;84;21139;-90
2021/01/30 05:48:36;;;;;;;3.40;2.35;;;;;;;0.89;89.67;94422.83;1657664;85;21144;-89
2021/01/30 05:51:45;;;;;;;4.28;2.80;;;;;;;0.89;89.65;94426.73;1660701;85;21129;-89
2021/01/30 05:54:12;;;;;;;5.62;3.08;;;;;;;0.93;89.64;94418.61;1672789;85;21128;-88
2021/01/30 05:56:43;;;;;;;3.65;2.52;;;;;;;0.80;89.62;94415.30;1670526;85;21268;-88
2021/01/30 05:59:18;;;;;;;3.22;2.65;;;;;;;0.98;89.63;94439.44;1652452;85;21520;-88
2021/01/30 06:01:45;;;;;;;3.67;2.70;;;;;;;1.00;89.63;94445.19;1669766;84;21217;-87
2021/01/30 06:04:13;;;;;;;5.90;3.55;;;;;;;1.02;89.65;94441.78;1666641;84;21124;-88
2021/01/30 06:06:45;;;;;;;6.95;3.65;;;;;;;1.04;89.62;94438.38;1674473;84;21668;-87
2021/01/30 06:09:37;;;;;;;5.55;3.30;;;;;;;1.05;89.49;94438.63;1686792;84;21183;-88
2021/01/30 06:12:22;;;;;;;6.33;3.33;;;;;;;1.03;89.48;94428.21;1660806;84;21125;-88
2021/01/30 06:14:51;;;;;;;6.87;4.05;;;;;;;1.10;89.50;94438.58;1678286;84;21593;-88
2021/01/30 06:17:23;;;;;;;7.28;3.80;;;;;;;1.13;89.45;94438.06;1689881;84;21167;-88
2021/01/30 06:20:12;;;;;;;5.87;3.40;;;;;;;1.16;89.43;94432.30;1694653;84;21137;-88
2021/01/30 06:22:40;;;;;;;8.00;3.70;;;;;;;1.20;89.56;94436.44;1695323;84;21155;-89
2021/01/30 06:25:30;;;;;;;7.05;4.05;;;;;;;1.20;89.46;94423.39;1700834;83;21144;-88
2021/01/30 06:28:24;;;;;;;6.00;3.37;;;;;;;1.27;89.49;94425.17;1685970;83;21135;-88
2021/01/30 06:30:53;;;;;;;12.10;4.47;;;;;;;1.30;89.43;94429.84;1681427;84;21112;-89
2021/01/30 06:33:34;;;;;;;8.98;3.65;;;;;;;1.32;89.39;94412.07;1689314;83;21133;-88
2021/01/30 06:36:18;;;;;;;8.15;4.00;;;;;;;1.35;89.50;94415.96;1683460;84;21150;-88
2021/01/30 06:39:11;;;;;;;7.85;4.28;;;;;;;1.41;89.44;94418.80;1726574;81;21189;-88
2021/01/30 06:41:41;;;;;;;6.90;3.15;;;;;;;1.46;89.39;94416.13;1722721;81;21118;-88
2021/01/30 06:44:23;;;;;;;5.83;3.00;;;;;;;1.53;89.38;94419.72;1727176;81;21275;-89
2021/01/30 06:47:20;;;;;;;7.80;3.65;;;;;;;1.58;89.30;94425.70;1716386;81;21132;-89
2021/01/30 06:49:55;;;;;;;5.78;3.27;;;;;;;1.63;89.21;94429.55;1718779;83;21159;-89
2021/01/30 06:52:28;;;;;;;5.60;2.92;;;;;;;1.66;89.14;94413.86;1720610;81;21131;-90
2021/01/30 06:55:10;;;;;;;4.00;2.52;;;;;;;1.69;89.21;94421.95;1723601;83;21664;-90
2021/01/30 06:58:01;;;;;;;4.12;2.10;;;;;;;1.75;89.23;94422.66;1720687;81;21169;-90
2021/01/30 07:00:33;;;;;;;5.45;2.87;;;;;;;1.88;89.42;94417.31;1732130;83;21161;-91
2021/01/30 07:03:23;;;;;;;4.62;3.00;;;;;;;1.93;89.16;94412.03;1727606;81;21182;-89
2021/01/30 07:06:11;;;;;;;5.75;3.00;;;;;;;1.90;89.02;94408.14;1737161;81;21118;-90
2021/01/30 07:09:18;;;;;;;5.83;3.83;;;;;;;1.92;88.89;94409.94;1672479;85;21136;-90
2021/01/30 07:12:18;;;;;;;6.10;3.10;;;;;;;1.93;88.83;94397.66;1664899;85;21151;-89
2021/01/30 07:14:56;;;;;;;5.70;3.10;;;;;;;1.92;88.83;94397.41;1659579;85;21238;-89
2021/01/30 07:17:52;;;;;;;3.52;2.20;;;;;;;1.87;88.89;94398.78;1660941;85;21185;-90
2021/01/30 07:20:51;;;;;;;7.28;3.00;;;;;;;1.82;89.20;94402.73;1688682;84;21203;-90
2021/01/30 07:23:42;;;;;;;6.25;2.95;;;;;;;1.81;89.23;94411.09;1699342;84;21153;-90
2021/01/30 07:26:33;;;;;;;2.27;1.40;;;;;;;1.87;89.42;94398.78;1627750;85;21136;-89
2021/01/30 07:29:14;;;;;;;5.72;2.90;;;;;;;1.84;89.59;94395.42;1664493;84;21172;-89
2021/01/30 07:31:53;;;;;;;3.75;2.40;;;;;;;1.89;89.80;94387.52;1661715;85;21184;-90
2021/01/30 07:34:40;;;;;;;4.92;2.42;;;;;;;2.03;89.69;94376.13;1672615;85;21174;-90
2021/01/30 07:37:27;;;;;;;5.03;2.67;;;;;;;2.22;89.60;94364.39;1723850;82;21120;-90
2021/01/30 07:40:03;;;;;;;8.50;4.83;;;;;;;2.58;89.43;94363.95;1725925;82;21161;-90
2021/01/30 07:43:09;;;;;;;8.15;5.03;;;;;;;2.73;88.87;94363.73;1711881;81;21369;-90
2021/01/30 07:45:42;;;;;;;8.43;4.97;;;;;;;2.76;88.18;94355.84;1711800;82;21167;-90
2021/01/30 07:48:50;;;;;;;19.15;11.50;;;;;;;2.68;87.85;94351.51;1712821;81;21506;-90
2021/01/30 07:51:25;;;;;;;22.75;12.05;;;;;;;2.71;87.83;94346.23;1723582;83;21510;-90
2021/01/30 07:53:53;;;;;;;39.08;18.07;;;;;;;2.89;87.89;94345.44;1719166;82;21130;-90
2021/01/30 07:57:00;;;;;;;36.77;19.25;;;;;;;3.46;87.82;94344.77;1733394;82;21149;-90
2021/01/30 07:59:54;;;;;;;28.23;15.70;;;;;;;3.84;87.26;94344.63;1714112;81;21604;-90
2021/01/30 08:02:57;;;;;;;28.20;17.17;;;;;;;3.77;85.89;94335.83;1714588;83;21709;-91
2021/01/30 08:06:13;;;;;;;16.75;9.48;;;;;;;3.56;85.73;94330.73;1723112;81;21131;-89
2021/01/30 08:08:52;;;;;;;9.68;4.60;;;;;;;3.37;85.70;94317.69;1723646;81;21160;-89
2021/01/30 08:11:39;;;;;;;10.03;4.50;;;;;;;3.21;85.85;94325.56;1729994;81;21470;-88
2021/01/30 08:14:38;;;;;;;6.75;4.05;;;;;;;3.18;86.01;94323.52;1720698;81;21181;-88
2021/01/30 08:17:31;;;;;;;7.78;4.35;;;;;;;3.11;85.97;94317.36;1653970;85;21452;-89
2021/01/30 08:20:04;;;;;;;8.25;4.40;;;;;;;3.03;85.97;94319.84;1655763;86;21194;-89
2021/01/30 08:22:59;;;;;;;5.50;3.45;;;;;;;3.01;86.08;94318.05;1684690;84;21186;-89
2021/01/30 08:25:34;;;;;;;7.80;3.55;;;;;;;3.09;86.31;94321.30;1734977;81;21104;-90
2021/01/30 08:28:21;;;;;;;3.72;2.02;;;;;;;3.13;86.13;94319.16;1720765;83;21123;-88
2021/01/30 08:30:54;;;;;;;4.22;2.15;;;;;;;3.10;85.84;94321.58;1711888;83;21144;-88
2021/01/30 08:33:22;;;;;;;3.70;1.92;;;;;;;3.12;85.99;94324.14;1728738;83;21138;-88
2021/01/30 08:35:55;;;;;;;3.08;2.15;;;;;;;3.15;85.95;94322.80;1725429;83;21512;-90
2021/01/30 08:38:27;;;;;;;2.70;1.02;;;;;;;3.16;85.96;94326.43;1717312;83;21142;-90
2021/01/30 08:41:09;;;;;;;3.25;1.37;;;;;;;3.12;85.77;94301.89;1733909;81;21146;-91
2021/01/30 08:43:53;;;;;;;3.52;1.32;;;;;;;3.11;85.89;94312.66;1717555;81;21168;-90
2021/01/30 08:46:37;;;;;;;2.47;1.17;;;;;;;3.11;86.03;94308.73;1650363;86;21117;-90
2021/01/30 08:49:20;;;;;;;3.22;1.52;;;;;;;3.07;85.99;94307.73;1671411;85;21171;-89
2021/01/30 08:52:09;;;;;;;2.90;0.88;;;;;;;3.10;86.12;94317.66;1677046;84;21212;-89
2021/01/30 08:54:43;;;;;;;2.30;1.10;;;;;;;3.08;86.00;94337.55;1679339;85;21531;-90
2021/01/30 08:57:35;;;;;;;1.47;0.93;;;;;;;3.15;85.99;94322.80;1682673;83;21134;-89
2021/01/30 09:00:07;;;;;;;3.00;1.50;;;;;;;3.12;85.96;94324.68;1673244;84;21620;-90
2021/01/30 09:02:40;;;;;;;2.45;1.00;;;;;;;3.05;86.04;94334.20;1654698;85;21147;-90
2021/01/30 09:05:18;;;;;;;1.17;1.05;;;;;;;3.00;86.23;94334.81;1694227;84;21484;-90
2021/01/30 09:07:55;;;;;;;3.10;1.10;;;;;;;2.99;86.43;94328.81;1687278;84;21191;-90
2021/01/30 09:10:29;;;;;;;2.67;1.30;;;;;;;2.95;86.52;94346.90;1682794;84;21514;-90
2021/01/30 09:13:19;;;;;;;1.45;0.90;;;;;;;2.87;86.69;94347.56;1684382;84;21135;-89
2021/01/30 09:15:57;;;;;;;1.30;0.83;;;;;;;2.81;86.87;94348.69;1686305;84;21108;-90
2021/01/30 09:18:35;;;;;;;0.88;0.60;;;;;;;2.79;87.01;94338.26;1726522;81;21156;-88
2021/01/30 09:21:29;;;;;;;1.45;0.60;;;;;;;2.74;87.17;94344.35;1717629;81;21491;-86
2021/01/30 09:24:38;;;;;;;1.25;0.72;;;;;;;2.66;87.39;94358.06;1732837;81;21138;-91
2021/01/30 09:27:22;;;;;;;1.37;0.75;;;;;;;2.67;87.60;94362.23;1708170;81;21123;-91
2021/01/30 09:29:52;;;;;;;1.57;1.12;;;;;;;2.64;87.67;94360.19;1727786;82;21140;-88
2021/01/30 09:32:27;;;;;;;1.92;1.30;;;;;;;2.68;87.69;94363.81;1732439;83;21148;-90
2021/01/30 09:35:06;;;;;;;2.62;1.32;;;;;;;2.70;87.67;94366.14;1740132;81;21503;-88
2021/01/30 09:37:47;;;;;;;1.65;1.02;;;;;;;2.73;87.62;94353.80;1720936;82;21648;-90
2021/01/30 09:40:32;;;;;;;0.60;0.60;;;;;;;2.77;87.53;94355.55;1723561;83;21240;-89
2021/01/30 09:43:08;;;;;;;2.40;1.30;;;;;;;2.78;87.51;94354.48;1718990;81;21625;-91
2021/01/30 09:45:39;;;;;;;2.30;1.15;;;;;;;2.82;87.52;94352.87;1735018;81;21165;-89
2021/01/30 09:48:11;;;;;;;1.85;1.20;;;;;;;2.89;87.47;94341.51;1720461;81;21172;-89
2021/01/30 09:50:57;;;;;;;1.45;1.02;;;;;;;2.87;87.34;94339.71;1716621;81;21252;-88
2021/01/30 09:56:15;;;;;;;2.20;1.15;;;;;;;3.03;87.11;94330.31;1766729;79;23069;-89
2021/01/30 09:58:47;;;;;;;1.72;1.12;;;;;;;2.96;87.01;94356.33;1726456;82;21119;-87
2021/01/30 10:01:28;;;;;;;2.65;1.30;;;;;;;2.97;87.02;94346.64;1711851;83;21177;-87
2021/01/30 10:03:55;;;;;;;2.83;1.32;;;;;;;3.00;87.05;94349.98;1710754;83;21480;-88
2021/01/30 10:06:32;;;;;;;0.80;0.68;;;;;;;3.02;87.04;94341.84;1727540;83;21100;-88
2021/01/30 10:09:19;;;;;;;1.72;0.75;;;;;;;3.02;86.96;94336.61;1711573;83;21522;-89
2021/01/30 10:11:57;;;;;;;1.60;0.98;;;;;;;3.02;87.01;94340.54;1717672;83;22234;-87
2021/01/30 10:14:27;;;;;;;3.30;1.30;;;;;;;2.97;87.01;94337.48;1723515;83;21126;-87
2021/01/30 10:17:01;;;;;;;1.98;1.42;;;;;;;2.93;87.12;94342.48;1724645;81;21151;-87
2021/01/30 10:19:34;;;;;;;1.55;0.88;;;;;;;2.96;87.19;94332.00;1725921;83;21463;-88
2021/01/30 10:22:25;;;;;;;1.50;0.95;;;;;;;2.93;87.26;94337.25;1727942;81;21123;-87
2021/01/30 10:24:57;;;;;;;2.02;1.35;;;;;;;2.97;87.37;94325.17;1724853;81;21107;-87
2021/01/30 10:27:29;;;;;;;2.30;1.32;;;;;;;3.02;87.42;94339.23;1713756;81;21202;-87
2021/01/30 10:29:59;;;;;;;2.00;1.20;;;;;;;3.00;87.58;94346.06;1723707;82;21535;-88
2021/01/30 10:32:43;;;;;;;1.45;0.95;;;;;;;2.98;87.73;94341.12;1720319;83;21131;-86
2021/01/30 10:35:27;;;;;;;1.62;1.00;;;;;;;2.95;87.83;94345.59;1711472;83;21158;-88
2021/01/30 10:38:05;;;;;;;3.02;1.55;;;;;;;2.89;87.95;94351.20;1705549;83;21172;-87
2021/01/30 10:40:44;;;;;;;4.92;1.52;;;;;;;2.85;88.18;94344.45;1720695;83;21170;-87
2021/01/30 10:43:27;;;;;;;2.55;1.60;;;;;;;2.90;88.24;94363.22;1737592;81;21170;-87
2021/01/30 10:46:01;;;;;;;3.65;2.20;;;;;;;2.88;88.16;94359.58;1721015;83;21122;-86
2021/01/30 10:48:33;;;;;;;2.50;1.80;;;;;;;2.90;88.16;94357.45;1714890;83;21142;-87
2021/01/30 10:51:12;;;;;;;1.90;1.02;;;;;;;2.94;88.05;94344.57;1722946;83;21130;-87
2021/01/30 10:53:41;;;;;;;7.55;2.25;;;;;;;2.99;87.93;94347.13;1723408;83;21151;-88
2021/01/30 10:56:28;;;;;;;3.77;1.22;;;;;;;2.96;87.88;94346.39;1733771;81;21126;-87
2021/01/30 10:58:58;;;;;;;7.60;2.87;;;;;;;2.97;87.89;94331.72;1742959;81;21115;-87
2021/01/30 11:01:31;;;;;;;1.00;0.80;;;;;;;3.04;87.87;94326.62;1748648;81;21130;-85
2021/01/30 11:04:05;;;;;;;0.98;0.62;;;;;;;3.06;87.83;94325.81;1724746;83;21091;-87
2021/01/30 11:06:48;;;;;;;1.95;1.70;;;;;;;3.03;87.84;94328.47;1718950;81;21166;-87
2021/01/30 11:09:23;;;;;;;2.90;1.92;;;;;;;3.03;87.95;94326.39;1725819;81;21499;-87
2021/01/30 11:11:55;;;;;;;1.15;1.02;;;;;;;3.08;88.03;94327.08;1736650;81;21115;-88
2021/01/30 11:14:31;;;;;;;3.67;2.62;;;;;;;3.13;87.99;94331.47;1716313;81;21199;-88
2021/01/30 11:17:02;;;;;;;3.08;1.70;;;;;;;3.11;87.96;94332.29;1751805;81;21546;-87
2021/01/30 11:19:41;;;;;;;3.95;2.22;;;;;;;3.05;87.97;94329.49;1735285;81;21122;-87
2021/01/30 11:22:23;;;;;;;2.58;1.57;;;;;;;3.05;88.03;94330.27;1737395;81;21131;-86
2021/01/30 11:25:07;;;;;;;2.62;1.60;;;;;;;3.04;88.07;94322.17;1721265;83;21126;-87
2021/01/30 11:27:40;;;;;;;3.90;1.92;;;;;;;2.96;88.12;94339.86;1714621;83;21141;-87
2021/01/30 11:30:22;;;;;;;5.92;3.12;;;;;;;2.88;88.31;94360.89;1727240;81;21475;-88
2021/01/30 11:32:57;;;;;;;6.37;2.90;;;;;;;2.79;88.69;94392.67;1722424;81;21114;-87
2021/01/30 11:35:35;;;;;;;6.87;2.33;;;;;;;2.69;89.04;94439.92;1724622;81;21474;-86
2021/01/30 11:38:07;;;;;;;4.17;2.90;;;;;;;2.20;86.24;94437.62;1726425;82;21489;-87
2021/01/30 11:40:35;;;;;;;7.10;4.30;;;;;;;1.70;84.92;94443.61;1719512;83;21146;-87
2021/01/30 11:43:02;;;;;;;9.83;5.28;;;;;;;1.36;85.27;94414.91;1741172;81;21135;-85
2021/01/30 11:45:29;;;;;;;8.45;5.33;;;;;;;1.23;85.19;94395.96;1737407;81;21656;-86
2021/01/30 11:47:56;;;;;;;8.20;4.50;;;;;;;1.13;84.27;94441.97;1733623;81;21129;-86
2021/01/30 11:50:24;;;;;;;8.70;5.50;;;;;;;1.12;83.91;94453.44;1728279;83;21111;-85
2021/01/30 11:52:51;;;;;;;10.85;5.45;;;;;;;1.16;84.00;94474.05;1733654;82;21088;-85
2021/01/30 11:55:19;;;;;;;13.03;7.00;;;;;;;1.12;83.54;94471.70;1714659;83;21202;-86
2021/01/30 11:57:46;;;;;;;16.32;7.65;;;;;;;1.10;82.78;94476.94;1732873;83;21107;-85
2021/01/30 12:00:16;;;;;;;19.80;13.15;;;;;;;0.89;82.57;94502.38;1736262;81;21107;-86
2021/01/30 12:02:44;;;;;;;14.57;9.37;;;;;;;0.71;82.37;94469.88;1734209;82;21505;-86
2021/01/30 12:05:14;;;;;;;15.10;7.40;;;;;;;0.48;81.81;94497.86;1733935;83;21146;-86
2021/01/30 12:07:43;;;;;;;20.70;13.13;;;;;;;0.43;82.34;94529.94;1734140;83;21138;-83
2021/01/30 12:10:13;;;;;;;18.65;9.88;;;;;;;0.37;82.09;94505.45;1727378;82;21099;-85
2021/01/30 12:12:41;;;;;;;18.80;9.73;;;;;;;0.31;82.35;94545.09;1725798;83;21466;-85
2021/01/30 12:15:09;;;;;;;23.02;13.13;;;;;;;0.33;82.50;94553.94;1719854;83;21119;-86
2021/01/30 12:17:40;;;;;;;22.95;13.65;;;;;;;0.29;81.67;94569.33;1729448;83;21122;-86
2021/01/30 12:20:13;;;;;;;29.02;16.90;;;;;;;0.06;81.66;94532.88;1729688;81;21472;-86
2021/01/30 12:22:40;;;;;;;39.55;22.82;;;;;;;0.12;81.37;94592.25;1743510;81;21138;-84